sensor_id;sensor_type;location;lat;lon;timestamp;P1;durP1;ratioP1;P2;durP2;ratioP2
7887;SDS011;3989;48.810;9.208;2023-03-23T00:01:58;2.53;;;2.00;;
7887;SDS011;3989;48.810;9.208;2023-03-23T00:04:24;2.37;;;2.17;;
7887;SDS011;3989;48.810;9.208;2023-03-23T00:06:52;4.57;;;2.03;;
7887;SDS011;3989;48.810;9.208;2023-03-23T00:09:19;3.03;;;2.57;;
7887;SDS011;3989;48.810;9.208;2023-03-23T00:11:50;3.87;;;2.30;;
7887;SDS011;3989;48.810;9.208;2023-03-23T00:14:21;2.50;;;2.00;;
7887;SDS011;3989;48.810;9.208;2023-03-23T00:16:50;2.33;;;2.07;;
7887;SDS011;3989;48.810;9.208;2023-03-23T00:19:17;3.07;;;1.90;;
7887;SDS011;3989;48.810;9.208;2023-03-23T00:21:45;2.20;;;1.80;;
7887;SDS011;3989;48.810;9.208;2023-03-23T00:24:12;2.93;;;2.13;;
7887;SDS011;3989;48.810;9.208;2023-03-23T00:26:42;3.17;;;2.00;;
7887;SDS011;3989;48.810;9.208;2023-03-23T00:29:13;2.10;;;1.87;;
7887;SDS011;3989;48.810;9.208;2023-03-23T00:31:41;2.30;;;2.13;;
7887;SDS011;3989;48.810;9.208;2023-03-23T00:34:12;1.67;;;1.57;;
7887;SDS011;3989;48.810;9.208;2023-03-23T00:36:43;2.23;;;2.10;;
7887;SDS011;3989;48.810;9.208;2023-03-23T00:39:10;2.07;;;1.87;;
7887;SDS011;3989;48.810;9.208;2023-03-23T00:41:36;3.77;;;1.60;;
7887;SDS011;3989;48.810;9.208;2023-03-23T00:44:03;1.70;;;1.60;;
7887;SDS011;3989;48.810;9.208;2023-03-23T00:46:34;3.00;;;1.70;;
7887;SDS011;3989;48.810;9.208;2023-03-23T00:49:10;1.50;;;1.40;;
7887;SDS011;3989;48.810;9.208;2023-03-23T00:51:39;2.40;;;1.77;;
7887;SDS011;3989;48.810;9.208;2023-03-23T00:54:06;1.60;;;1.43;;
7887;SDS011;3989;48.810;9.208;2023-03-23T00:56:33;2.57;;;1.87;;
7887;SDS011;3989;48.810;9.208;2023-03-23T00:59:01;1.93;;;1.83;;
7887;SDS011;3989;48.810;9.208;2023-03-23T01:01:28;1.90;;;1.80;;
7887;SDS011;3989;48.810;9.208;2023-03-23T01:03:59;2.50;;;2.10;;
7887;SDS011;3989;48.810;9.208;2023-03-23T01:06:29;2.10;;;2.00;;
7887;SDS011;3989;48.810;9.208;2023-03-23T01:08:57;3.37;;;2.03;;
7887;SDS011;3989;48.810;9.208;2023-03-23T01:11:25;1.93;;;1.83;;
7887;SDS011;3989;48.810;9.208;2023-03-23T01:13:52;4.93;;;2.10;;
7887;SDS011;3989;48.810;9.208;2023-03-23T01:16:18;2.20;;;2.00;;
7887;SDS011;3989;48.810;9.208;2023-03-23T01:18:45;2.40;;;2.20;;
7887;SDS011;3989;48.810;9.208;2023-03-23T01:21:14;2.07;;;1.87;;
7887;SDS011;3989;48.810;9.208;2023-03-23T01:23:42;1.87;;;1.80;;
7887;SDS011;3989;48.810;9.208;2023-03-23T01:26:10;2.50;;;1.93;;
7887;SDS011;3989;48.810;9.208;2023-03-23T01:28:38;1.40;;;1.40;;
7887;SDS011;3989;48.810;9.208;2023-03-23T01:31:06;1.57;;;1.50;;
7887;SDS011;3989;48.810;9.208;2023-03-23T01:33:34;1.80;;;1.70;;
7887;SDS011;3989;48.810;9.208;2023-03-23T01:36:02;1.50;;;1.40;;
7887;SDS011;3989;48.810;9.208;2023-03-23T01:38:30;2.07;;;1.40;;
7887;SDS011;3989;48.810;9.208;2023-03-23T01:40:57;1.60;;;1.40;;
7887;SDS011;3989;48.810;9.208;2023-03-23T01:43:24;1.40;;;1.30;;
7887;SDS011;3989;48.810;9.208;2023-03-23T01:45:51;2.17;;;1.40;;
7887;SDS011;3989;48.810;9.208;2023-03-23T01:48:18;1.93;;;1.60;;
7887;SDS011;3989;48.810;9.208;2023-03-23T01:50:50;1.70;;;1.60;;
7887;SDS011;3989;48.810;9.208;2023-03-23T01:53:20;1.50;;;1.40;;
7887;SDS011;3989;48.810;9.208;2023-03-23T01:55:52;1.77;;;1.67;;
7887;SDS011;3989;48.810;9.208;2023-03-23T01:58:29;1.43;;;1.37;;
7887;SDS011;3989;48.810;9.208;2023-03-23T02:00:58;2.27;;;2.07;;
7887;SDS011;3989;48.810;9.208;2023-03-23T02:03:29;1.83;;;1.30;;
7887;SDS011;3989;48.810;9.208;2023-03-23T02:05:57;1.60;;;1.50;;
7887;SDS011;3989;48.810;9.208;2023-03-23T02:08:24;1.50;;;1.40;;
7887;SDS011;3989;48.810;9.208;2023-03-23T02:10:55;1.73;;;1.63;;
7887;SDS011;3989;48.810;9.208;2023-03-23T02:13:22;1.43;;;1.37;;
7887;SDS011;3989;48.810;9.208;2023-03-23T02:15:52;1.80;;;1.70;;
7887;SDS011;3989;48.810;9.208;2023-03-23T02:18:29;1.20;;;1.10;;
7887;SDS011;3989;48.810;9.208;2023-03-23T02:21:11;1.50;;;1.40;;
7887;SDS011;3989;48.810;9.208;2023-03-23T02:27:08;1.73;;;1.53;;
7887;SDS011;3989;48.810;9.208;2023-03-23T02:29:46;2.73;;;1.90;;
7887;SDS011;3989;48.810;9.208;2023-03-23T02:32:27;3.53;;;1.50;;
7887;SDS011;3989;48.810;9.208;2023-03-23T02:35:10;1.47;;;1.37;;
7887;SDS011;3989;48.810;9.208;2023-03-23T02:37:39;1.80;;;1.70;;
7887;SDS011;3989;48.810;9.208;2023-03-23T02:40:12;1.97;;;1.43;;
7887;SDS011;3989;48.810;9.208;2023-03-23T02:42:43;7.63;;;2.10;;
7887;SDS011;3989;48.810;9.208;2023-03-23T02:45:15;3.40;;;2.10;;
7887;SDS011;3989;48.810;9.208;2023-03-23T02:47:43;1.83;;;1.63;;
7887;SDS011;3989;48.810;9.208;2023-03-23T02:50:14;2.93;;;1.53;;
7887;SDS011;3989;48.810;9.208;2023-03-23T02:52:42;1.60;;;1.50;;
7887;SDS011;3989;48.810;9.208;2023-03-23T02:55:11;1.97;;;1.77;;
7887;SDS011;3989;48.810;9.208;2023-03-23T02:57:38;2.00;;;1.90;;
7887;SDS011;3989;48.810;9.208;2023-03-23T03:00:06;2.10;;;1.90;;
7887;SDS011;3989;48.810;9.208;2023-03-23T03:02:36;3.53;;;1.90;;
7887;SDS011;3989;48.810;9.208;2023-03-23T03:05:08;2.00;;;1.90;;
7887;SDS011;3989;48.810;9.208;2023-03-23T03:07:46;1.90;;;1.80;;
7887;SDS011;3989;48.810;9.208;2023-03-23T03:10:18;2.37;;;2.00;;
7887;SDS011;3989;48.810;9.208;2023-03-23T03:12:52;3.87;;;1.57;;
7887;SDS011;3989;48.810;9.208;2023-03-23T03:15:24;3.23;;;1.97;;
7887;SDS011;3989;48.810;9.208;2023-03-23T03:17:57;2.40;;;1.80;;
7887;SDS011;3989;48.810;9.208;2023-03-23T03:20:30;1.80;;;1.70;;
7887;SDS011;3989;48.810;9.208;2023-03-23T03:23:00;2.43;;;1.90;;
7887;SDS011;3989;48.810;9.208;2023-03-23T03:25:27;2.00;;;1.80;;
7887;SDS011;3989;48.810;9.208;2023-03-23T03:27:54;2.80;;;1.77;;
7887;SDS011;3989;48.810;9.208;2023-03-23T03:30:23;2.07;;;1.80;;
7887;SDS011;3989;48.810;9.208;2023-03-23T03:32:56;2.73;;;1.53;;
7887;SDS011;3989;48.810;9.208;2023-03-23T03:35:25;1.50;;;1.50;;
7887;SDS011;3989;48.810;9.208;2023-03-23T03:37:52;1.60;;;1.50;;
7887;SDS011;3989;48.810;9.208;2023-03-23T03:40:21;3.40;;;2.50;;
7887;SDS011;3989;48.810;9.208;2023-03-23T03:42:49;2.80;;;1.93;;
7887;SDS011;3989;48.810;9.208;2023-03-23T03:45:16;4.97;;;1.80;;
7887;SDS011;3989;48.810;9.208;2023-03-23T03:47:44;2.03;;;1.40;;
7887;SDS011;3989;48.810;9.208;2023-03-23T03:50:11;3.10;;;1.67;;
7887;SDS011;3989;48.810;9.208;2023-03-23T03:52:38;1.87;;;1.73;;
7887;SDS011;3989;48.810;9.208;2023-03-23T03:55:05;1.73;;;1.63;;
7887;SDS011;3989;48.810;9.208;2023-03-23T03:57:35;1.83;;;1.73;;
7887;SDS011;3989;48.810;9.208;2023-03-23T04:00:02;2.17;;;1.83;;
7887;SDS011;3989;48.810;9.208;2023-03-23T04:02:39;2.10;;;1.80;;
7887;SDS011;3989;48.810;9.208;2023-03-23T04:05:06;2.57;;;1.60;;
7887;SDS011;3989;48.810;9.208;2023-03-23T04:07:34;1.77;;;1.63;;
7887;SDS011;3989;48.810;9.208;2023-03-23T04:10:02;3.93;;;2.20;;
7887;SDS011;3989;48.810;9.208;2023-03-23T04:12:29;1.93;;;1.83;;
7887;SDS011;3989;48.810;9.208;2023-03-23T04:14:57;2.03;;;1.70;;
7887;SDS011;3989;48.810;9.208;2023-03-23T04:17:24;1.73;;;1.63;;
7887;SDS011;3989;48.810;9.208;2023-03-23T04:19:51;2.80;;;1.80;;
7887;SDS011;3989;48.810;9.208;2023-03-23T04:22:17;2.23;;;2.00;;
7887;SDS011;3989;48.810;9.208;2023-03-23T04:24:44;3.07;;;2.10;;
7887;SDS011;3989;48.810;9.208;2023-03-23T04:27:10;2.60;;;1.77;;
7887;SDS011;3989;48.810;9.208;2023-03-23T04:29:38;2.00;;;1.90;;
7887;SDS011;3989;48.810;9.208;2023-03-23T04:32:06;2.70;;;2.10;;
7887;SDS011;3989;48.810;9.208;2023-03-23T04:34:32;2.10;;;2.00;;
7887;SDS011;3989;48.810;9.208;2023-03-23T04:37:00;2.50;;;2.00;;
7887;SDS011;3989;48.810;9.208;2023-03-23T04:39:27;2.30;;;1.80;;
7887;SDS011;3989;48.810;9.208;2023-03-23T04:41:54;1.97;;;1.77;;
7887;SDS011;3989;48.810;9.208;2023-03-23T04:44:20;2.30;;;2.10;;
7887;SDS011;3989;48.810;9.208;2023-03-23T04:46:47;2.60;;;2.40;;
7887;SDS011;3989;48.810;9.208;2023-03-23T04:49:16;2.83;;;2.07;;
7887;SDS011;3989;48.810;9.208;2023-03-23T04:51:46;3.43;;;2.40;;
7887;SDS011;3989;48.810;9.208;2023-03-23T04:54:13;2.27;;;2.17;;
7887;SDS011;3989;48.810;9.208;2023-03-23T04:56:40;2.47;;;2.30;;
7887;SDS011;3989;48.810;9.208;2023-03-23T04:59:07;3.60;;;2.80;;
7887;SDS011;3989;48.810;9.208;2023-03-23T05:01:33;2.57;;;2.37;;
7887;SDS011;3989;48.810;9.208;2023-03-23T05:04:02;4.40;;;3.13;;
7887;SDS011;3989;48.810;9.208;2023-03-23T05:06:30;3.47;;;2.90;;
7887;SDS011;3989;48.810;9.208;2023-03-23T05:08:56;3.07;;;2.87;;
7887;SDS011;3989;48.810;9.208;2023-03-23T05:11:23;3.10;;;2.73;;
7887;SDS011;3989;48.810;9.208;2023-03-23T05:13:50;3.80;;;3.00;;
7887;SDS011;3989;48.810;9.208;2023-03-23T05:16:16;4.30;;;2.50;;
7887;SDS011;3989;48.810;9.208;2023-03-23T05:18:43;3.23;;;2.23;;
7887;SDS011;3989;48.810;9.208;2023-03-23T05:21:11;2.13;;;2.03;;
7887;SDS011;3989;48.810;9.208;2023-03-23T05:23:40;4.53;;;2.37;;
7887;SDS011;3989;48.810;9.208;2023-03-23T05:26:07;2.73;;;1.80;;
7887;SDS011;3989;48.810;9.208;2023-03-23T05:28:34;1.87;;;1.73;;
7887;SDS011;3989;48.810;9.208;2023-03-23T05:31:01;2.10;;;1.90;;
7887;SDS011;3989;48.810;9.208;2023-03-23T05:33:27;1.73;;;1.63;;
7887;SDS011;3989;48.810;9.208;2023-03-23T05:35:54;2.33;;;1.70;;
7887;SDS011;3989;48.810;9.208;2023-03-23T05:38:21;2.00;;;1.70;;
7887;SDS011;3989;48.810;9.208;2023-03-23T05:40:49;2.57;;;1.57;;
7887;SDS011;3989;48.810;9.208;2023-03-23T05:43:15;1.70;;;1.60;;
7887;SDS011;3989;48.810;9.208;2023-03-23T05:45:42;1.40;;;1.30;;
7887;SDS011;3989;48.810;9.208;2023-03-23T05:48:09;1.50;;;1.40;;
7887;SDS011;3989;48.810;9.208;2023-03-23T05:50:35;1.77;;;1.50;;
7887;SDS011;3989;48.810;9.208;2023-03-23T05:53:02;1.47;;;1.37;;
7887;SDS011;3989;48.810;9.208;2023-03-23T05:55:29;1.80;;;1.40;;
7887;SDS011;3989;48.810;9.208;2023-03-23T05:57:58;1.70;;;1.30;;
7887;SDS011;3989;48.810;9.208;2023-03-23T06:00:25;1.23;;;1.23;;
7887;SDS011;3989;48.810;9.208;2023-03-23T06:02:54;3.13;;;1.40;;
7887;SDS011;3989;48.810;9.208;2023-03-23T06:05:22;5.83;;;1.60;;
7887;SDS011;3989;48.810;9.208;2023-03-23T06:07:50;1.47;;;1.10;;
7887;SDS011;3989;48.810;9.208;2023-03-23T06:10:17;1.57;;;1.33;;
7887;SDS011;3989;48.810;9.208;2023-03-23T06:12:43;1.20;;;1.20;;
7887;SDS011;3989;48.810;9.208;2023-03-23T06:15:11;1.40;;;1.30;;
7887;SDS011;3989;48.810;9.208;2023-03-23T06:17:39;1.53;;;1.47;;
7887;SDS011;3989;48.810;9.208;2023-03-23T06:20:06;1.43;;;1.30;;
7887;SDS011;3989;48.810;9.208;2023-03-23T06:22:34;1.73;;;1.50;;
7887;SDS011;3989;48.810;9.208;2023-03-23T06:25:03;2.33;;;1.60;;
7887;SDS011;3989;48.810;9.208;2023-03-23T06:27:30;1.50;;;1.40;;
7887;SDS011;3989;48.810;9.208;2023-03-23T06:29:56;1.47;;;1.40;;
7887;SDS011;3989;48.810;9.208;2023-03-23T06:32:25;1.67;;;1.57;;
7887;SDS011;3989;48.810;9.208;2023-03-23T06:34:55;1.70;;;1.60;;
7887;SDS011;3989;48.810;9.208;2023-03-23T06:37:22;1.57;;;1.47;;
7887;SDS011;3989;48.810;9.208;2023-03-23T06:39:49;1.43;;;1.33;;
7887;SDS011;3989;48.810;9.208;2023-03-23T06:42:16;2.57;;;1.90;;
7887;SDS011;3989;48.810;9.208;2023-03-23T06:44:43;1.43;;;1.33;;
7887;SDS011;3989;48.810;9.208;2023-03-23T06:47:10;1.40;;;1.30;;
7887;SDS011;3989;48.810;9.208;2023-03-23T06:49:38;1.57;;;1.30;;
7887;SDS011;3989;48.810;9.208;2023-03-23T06:52:05;1.50;;;1.40;;
7887;SDS011;3989;48.810;9.208;2023-03-23T06:54:32;2.70;;;1.50;;
7887;SDS011;3989;48.810;9.208;2023-03-23T06:56:58;1.57;;;1.37;;
7887;SDS011;3989;48.810;9.208;2023-03-23T06:59:25;1.60;;;1.50;;
7887;SDS011;3989;48.810;9.208;2023-03-23T07:01:51;3.33;;;1.73;;
7887;SDS011;3989;48.810;9.208;2023-03-23T07:04:18;1.33;;;1.23;;
7887;SDS011;3989;48.810;9.208;2023-03-23T07:06:46;2.17;;;1.90;;
7887;SDS011;3989;48.810;9.208;2023-03-23T07:09:13;2.80;;;2.57;;
7887;SDS011;3989;48.810;9.208;2023-03-23T07:11:40;2.87;;;1.53;;
7887;SDS011;3989;48.810;9.208;2023-03-23T07:14:07;1.93;;;1.77;;
7887;SDS011;3989;48.810;9.208;2023-03-23T07:16:34;2.00;;;1.80;;
7887;SDS011;3989;48.810;9.208;2023-03-23T07:19:00;1.80;;;1.70;;
7887;SDS011;3989;48.810;9.208;2023-03-23T07:21:27;2.00;;;1.37;;
7887;SDS011;3989;48.810;9.208;2023-03-23T07:23:55;3.57;;;1.67;;
7887;SDS011;3989;48.810;9.208;2023-03-23T07:26:21;2.00;;;1.70;;
7887;SDS011;3989;48.810;9.208;2023-03-23T07:28:48;1.70;;;1.50;;
7887;SDS011;3989;48.810;9.208;2023-03-23T07:31:15;1.90;;;1.60;;
7887;SDS011;3989;48.810;9.208;2023-03-23T07:33:41;5.77;;;1.93;;
7887;SDS011;3989;48.810;9.208;2023-03-23T07:36:09;3.10;;;1.90;;
7887;SDS011;3989;48.810;9.208;2023-03-23T07:38:37;2.07;;;1.53;;
7887;SDS011;3989;48.810;9.208;2023-03-23T07:41:05;2.10;;;1.40;;
7887;SDS011;3989;48.810;9.208;2023-03-23T07:43:32;2.37;;;1.63;;
7887;SDS011;3989;48.810;9.208;2023-03-23T07:45:59;1.23;;;1.20;;
7887;SDS011;3989;48.810;9.208;2023-03-23T07:48:26;1.20;;;1.20;;
7887;SDS011;3989;48.810;9.208;2023-03-23T07:50:53;2.13;;;1.47;;
7887;SDS011;3989;48.810;9.208;2023-03-23T07:53:19;3.27;;;1.47;;
7887;SDS011;3989;48.810;9.208;2023-03-23T07:55:46;2.50;;;1.17;;
7887;SDS011;3989;48.810;9.208;2023-03-23T07:58:15;2.00;;;1.33;;
7887;SDS011;3989;48.810;9.208;2023-03-23T08:00:44;2.03;;;1.53;;
7887;SDS011;3989;48.810;9.208;2023-03-23T08:03:11;1.70;;;1.10;;
7887;SDS011;3989;48.810;9.208;2023-03-23T08:05:38;4.37;;;2.10;;
7887;SDS011;3989;48.810;9.208;2023-03-23T08:08:07;1.35;;;1.27;;
7887;SDS011;3989;48.810;9.208;2023-03-23T08:10:34;2.30;;;1.63;;
7887;SDS011;3989;48.810;9.208;2023-03-23T08:13:02;1.88;;;1.77;;
7887;SDS011;3989;48.810;9.208;2023-03-23T08:15:32;1.23;;;1.23;;
7887;SDS011;3989;48.810;9.208;2023-03-23T08:18:02;2.03;;;1.83;;
7887;SDS011;3989;48.810;9.208;2023-03-23T08:20:29;1.40;;;1.20;;
7887;SDS011;3989;48.810;9.208;2023-03-23T08:22:58;2.30;;;1.37;;
7887;SDS011;3989;48.810;9.208;2023-03-23T08:25:24;1.85;;;1.45;;
7887;SDS011;3989;48.810;9.208;2023-03-23T08:27:51;1.97;;;1.27;;
7887;SDS011;3989;48.810;9.208;2023-03-23T08:30:19;1.57;;;1.47;;
7887;SDS011;3989;48.810;9.208;2023-03-23T08:32:48;1.60;;;1.50;;
7887;SDS011;3989;48.810;9.208;2023-03-23T08:35:15;1.40;;;1.30;;
7887;SDS011;3989;48.810;9.208;2023-03-23T08:37:43;1.57;;;1.50;;
7887;SDS011;3989;48.810;9.208;2023-03-23T08:40:11;1.42;;;1.40;;
7887;SDS011;3989;48.810;9.208;2023-03-23T08:42:40;2.38;;;1.80;;
7887;SDS011;3989;48.810;9.208;2023-03-23T08:45:09;1.40;;;1.40;;
7887;SDS011;3989;48.810;9.208;2023-03-23T08:47:37;2.43;;;1.70;;
7887;SDS011;3989;48.810;9.208;2023-03-23T08:50:08;3.00;;;2.13;;
7887;SDS011;3989;48.810;9.208;2023-03-23T08:52:37;1.58;;;1.48;;
7887;SDS011;3989;48.810;9.208;2023-03-23T08:55:04;1.90;;;1.50;;
7887;SDS011;3989;48.810;9.208;2023-03-23T08:57:34;1.95;;;1.60;;
7887;SDS011;3989;48.810;9.208;2023-03-23T09:00:01;1.48;;;1.38;;
7887;SDS011;3989;48.810;9.208;2023-03-23T09:02:39;1.88;;;1.35;;
7887;SDS011;3989;48.810;9.208;2023-03-23T09:05:08;1.55;;;1.25;;
7887;SDS011;3989;48.810;9.208;2023-03-23T09:07:36;3.42;;;1.30;;
7887;SDS011;3989;48.810;9.208;2023-03-23T09:10:03;1.63;;;1.42;;
7887;SDS011;3989;48.810;9.208;2023-03-23T09:12:31;2.45;;;1.77;;
7887;SDS011;3989;48.810;9.208;2023-03-23T09:14:57;1.88;;;1.50;;
7887;SDS011;3989;48.810;9.208;2023-03-23T09:17:24;2.13;;;1.58;;
7887;SDS011;3989;48.810;9.208;2023-03-23T09:19:51;2.43;;;1.43;;
7887;SDS011;3989;48.810;9.208;2023-03-23T09:22:19;1.37;;;1.27;;
7887;SDS011;3989;48.810;9.208;2023-03-23T09:24:49;1.45;;;1.35;;
7887;SDS011;3989;48.810;9.208;2023-03-23T09:27:16;1.52;;;1.42;;
7887;SDS011;3989;48.810;9.208;2023-03-23T09:29:44;1.40;;;1.30;;
7887;SDS011;3989;48.810;9.208;2023-03-23T09:32:13;1.10;;;1.10;;
7887;SDS011;3989;48.810;9.208;2023-03-23T09:34:40;1.58;;;1.50;;
7887;SDS011;3989;48.810;9.208;2023-03-23T09:37:07;2.00;;;1.50;;
7887;SDS011;3989;48.810;9.208;2023-03-23T09:39:35;1.17;;;1.17;;
7887;SDS011;3989;48.810;9.208;2023-03-23T09:42:10;1.65;;;1.50;;
7887;SDS011;3989;48.810;9.208;2023-03-23T09:44:51;1.23;;;1.10;;
7887;SDS011;3989;48.810;9.208;2023-03-23T09:47:30;1.20;;;1.20;;
7887;SDS011;3989;48.810;9.208;2023-03-23T09:50:04;2.75;;;1.42;;
7887;SDS011;3989;48.810;9.208;2023-03-23T09:52:37;1.10;;;1.10;;
7887;SDS011;3989;48.810;9.208;2023-03-23T09:55:10;1.70;;;1.60;;
7887;SDS011;3989;48.810;9.208;2023-03-23T09:57:42;1.20;;;1.20;;
7887;SDS011;3989;48.810;9.208;2023-03-23T10:00:14;1.20;;;1.20;;
7887;SDS011;3989;48.810;9.208;2023-03-23T10:02:46;1.27;;;1.27;;
7887;SDS011;3989;48.810;9.208;2023-03-23T10:05:32;1.50;;;1.40;;
7887;SDS011;3989;48.810;9.208;2023-03-23T10:08:01;1.37;;;1.10;;
7887;SDS011;3989;48.810;9.208;2023-03-23T10:10:36;1.40;;;1.30;;
7887;SDS011;3989;48.810;9.208;2023-03-23T10:13:15;1.33;;;1.23;;
7887;SDS011;3989;48.810;9.208;2023-03-23T10:15:49;1.27;;;1.27;;
7887;SDS011;3989;48.810;9.208;2023-03-23T10:18:17;1.27;;;1.17;;
7887;SDS011;3989;48.810;9.208;2023-03-23T10:20:48;1.50;;;1.48;;
7887;SDS011;3989;48.810;9.208;2023-03-23T10:23:31;1.60;;;1.50;;
7887;SDS011;3989;48.810;9.208;2023-03-23T10:26:11;1.52;;;1.42;;
7887;SDS011;3989;48.810;9.208;2023-03-23T10:28:47;3.03;;;1.10;;
7887;SDS011;3989;48.810;9.208;2023-03-23T10:31:19;1.20;;;1.15;;
7887;SDS011;3989;48.810;9.208;2023-03-23T10:33:49;1.10;;;1.10;;
7887;SDS011;3989;48.810;9.208;2023-03-23T10:36:19;3.03;;;1.40;;
7887;SDS011;3989;48.810;9.208;2023-03-23T10:38:53;1.85;;;1.10;;
7887;SDS011;3989;48.810;9.208;2023-03-23T10:41:25;1.20;;;1.20;;
7887;SDS011;3989;48.810;9.208;2023-03-23T10:43:52;1.17;;;1.17;;
7887;SDS011;3989;48.810;9.208;2023-03-23T10:46:25;2.45;;;1.30;;
7887;SDS011;3989;48.810;9.208;2023-03-23T10:48:56;1.20;;;1.20;;
7887;SDS011;3989;48.810;9.208;2023-03-23T10:51:27;1.55;;;1.45;;
7887;SDS011;3989;48.810;9.208;2023-03-23T10:53:58;1.20;;;1.20;;
7887;SDS011;3989;48.810;9.208;2023-03-23T10:56:29;1.17;;;1.17;;
7887;SDS011;3989;48.810;9.208;2023-03-23T10:59:10;1.50;;;1.30;;
7887;SDS011;3989;48.810;9.208;2023-03-23T11:01:38;2.33;;;1.40;;
7887;SDS011;3989;48.810;9.208;2023-03-23T11:04:10;1.30;;;1.30;;
7887;SDS011;3989;48.810;9.208;2023-03-23T11:06:42;1.50;;;1.40;;
7887;SDS011;3989;48.810;9.208;2023-03-23T11:09:11;1.45;;;1.35;;
7887;SDS011;3989;48.810;9.208;2023-03-23T11:11:42;2.20;;;1.40;;
7887;SDS011;3989;48.810;9.208;2023-03-23T11:14:14;1.35;;;1.35;;
7887;SDS011;3989;48.810;9.208;2023-03-23T11:16:43;1.60;;;1.50;;
7887;SDS011;3989;48.810;9.208;2023-03-23T11:19:12;1.67;;;1.58;;
7887;SDS011;3989;48.810;9.208;2023-03-23T11:21:39;1.10;;;1.10;;
7887;SDS011;3989;48.810;9.208;2023-03-23T11:24:12;1.50;;;1.40;;
7887;SDS011;3989;48.810;9.208;2023-03-23T11:26:40;1.85;;;1.40;;
7887;SDS011;3989;48.810;9.208;2023-03-23T11:29:13;1.27;;;1.27;;
7887;SDS011;3989;48.810;9.208;2023-03-23T11:31:42;1.83;;;1.10;;
7887;SDS011;3989;48.810;9.208;2023-03-23T11:34:13;1.50;;;1.40;;
7887;SDS011;3989;48.810;9.208;2023-03-23T11:36:41;1.58;;;1.30;;
7887;SDS011;3989;48.810;9.208;2023-03-23T11:39:20;1.35;;;1.25;;
7887;SDS011;3989;48.810;9.208;2023-03-23T11:41:50;2.05;;;1.30;;
7887;SDS011;3989;48.810;9.208;2023-03-23T11:44:17;2.05;;;1.60;;
7887;SDS011;3989;48.810;9.208;2023-03-23T11:46:47;1.30;;;1.30;;
7887;SDS011;3989;48.810;9.208;2023-03-23T11:49:24;1.33;;;1.23;;
7887;SDS011;3989;48.810;9.208;2023-03-23T11:51:58;1.40;;;1.40;;
7887;SDS011;3989;48.810;9.208;2023-03-23T11:54:32;1.70;;;1.38;;
7887;SDS011;3989;48.810;9.208;2023-03-23T11:57:05;1.52;;;1.42;;
7887;SDS011;3989;48.810;9.208;2023-03-23T11:59:34;1.65;;;1.55;;
7887;SDS011;3989;48.810;9.208;2023-03-23T12:02:06;1.30;;;1.30;;
7887;SDS011;3989;48.810;9.208;2023-03-23T12:07:47;2.97;;;1.60;;
7887;SDS011;3989;48.810;9.208;2023-03-23T12:10:25;1.20;;;1.20;;
7887;SDS011;3989;48.810;9.208;2023-03-23T12:13:02;1.90;;;1.80;;
7887;SDS011;3989;48.810;9.208;2023-03-23T12:15:43;1.55;;;1.27;;
7887;SDS011;3989;48.810;9.208;2023-03-23T12:18:18;4.00;;;1.48;;
7887;SDS011;3989;48.810;9.208;2023-03-23T12:21:06;1.20;;;1.20;;
7887;SDS011;3989;48.810;9.208;2023-03-23T12:23:41;1.42;;;1.30;;
7887;SDS011;3989;48.810;9.208;2023-03-23T12:26:17;1.35;;;1.25;;
7887;SDS011;3989;48.810;9.208;2023-03-23T12:28:53;1.45;;;1.35;;
7887;SDS011;3989;48.810;9.208;2023-03-23T12:31:33;1.63;;;1.52;;
7887;SDS011;3989;48.810;9.208;2023-03-23T12:34:06;1.50;;;1.40;;
7887;SDS011;3989;48.810;9.208;2023-03-23T12:36:50;1.52;;;1.42;;
7887;SDS011;3989;48.810;9.208;2023-03-23T12:42:34;3.05;;;1.40;;
7887;SDS011;3989;48.810;9.208;2023-03-23T12:45:14;1.13;;;1.10;;
7887;SDS011;3989;48.810;9.208;2023-03-23T12:47:48;1.50;;;1.40;;
7887;SDS011;3989;48.810;9.208;2023-03-23T12:50:23;1.60;;;1.30;;
7887;SDS011;3989;48.810;9.208;2023-03-23T12:52:57;1.40;;;1.30;;
7887;SDS011;3989;48.810;9.208;2023-03-23T12:55:30;1.33;;;1.30;;
7887;SDS011;3989;48.810;9.208;2023-03-23T12:58:01;1.20;;;1.20;;
7887;SDS011;3989;48.810;9.208;2023-03-23T13:00:34;1.63;;;1.55;;
7887;SDS011;3989;48.810;9.208;2023-03-23T13:03:17;1.75;;;1.65;;
7887;SDS011;3989;48.810;9.208;2023-03-23T13:05:49;1.55;;;1.45;;
7887;SDS011;3989;48.810;9.208;2023-03-23T13:08:21;1.52;;;1.45;;
7887;SDS011;3989;48.810;9.208;2023-03-23T13:10:52;1.48;;;1.38;;
7887;SDS011;3989;48.810;9.208;2023-03-23T13:13:23;1.38;;;1.33;;
7887;SDS011;3989;48.810;9.208;2023-03-23T13:15:56;1.30;;;1.20;;
7887;SDS011;3989;48.810;9.208;2023-03-23T13:18:34;1.88;;;1.40;;
7887;SDS011;3989;48.810;9.208;2023-03-23T13:21:12;1.60;;;1.50;;
7887;SDS011;3989;48.810;9.208;2023-03-23T13:23:43;1.55;;;1.27;;
7887;SDS011;3989;48.810;9.208;2023-03-23T13:26:12;1.70;;;1.60;;
7887;SDS011;3989;48.810;9.208;2023-03-23T13:28:48;1.35;;;1.35;;
7887;SDS011;3989;48.810;9.208;2023-03-23T13:31:28;1.52;;;1.48;;
7887;SDS011;3989;48.810;9.208;2023-03-23T13:33:59;1.73;;;1.33;;
7887;SDS011;3989;48.810;9.208;2023-03-23T13:36:30;4.40;;;1.48;;
7887;SDS011;3989;48.810;9.208;2023-03-23T13:39:00;1.60;;;1.50;;
7887;SDS011;3989;48.810;9.208;2023-03-23T13:41:29;1.45;;;1.35;;
7887;SDS011;3989;48.810;9.208;2023-03-23T13:46:52;1.30;;;1.30;;
7887;SDS011;3989;48.810;9.208;2023-03-23T13:49:21;1.20;;;1.20;;
7887;SDS011;3989;48.810;9.208;2023-03-23T13:51:58;1.30;;;1.27;;
7887;SDS011;3989;48.810;9.208;2023-03-23T13:54:41;1.27;;;1.20;;
7887;SDS011;3989;48.810;9.208;2023-03-23T13:57:20;1.25;;;1.25;;
7887;SDS011;3989;48.810;9.208;2023-03-23T13:59:57;1.25;;;1.15;;
7887;SDS011;3989;48.810;9.208;2023-03-23T14:02:33;1.42;;;1.42;;
7887;SDS011;3989;48.810;9.208;2023-03-23T14:05:11;1.60;;;1.50;;
7887;SDS011;3989;48.810;9.208;2023-03-23T14:07:55;1.77;;;1.67;;
7887;SDS011;3989;48.810;9.208;2023-03-23T14:10:24;1.52;;;1.33;;
7887;SDS011;3989;48.810;9.208;2023-03-23T14:12:52;1.50;;;1.15;;
7887;SDS011;3989;48.810;9.208;2023-03-23T14:15:20;2.00;;;1.90;;
7887;SDS011;3989;48.810;9.208;2023-03-23T14:17:48;1.70;;;1.60;;
7887;SDS011;3989;48.810;9.208;2023-03-23T14:20:24;1.10;;;1.10;;
7887;SDS011;3989;48.810;9.208;2023-03-23T14:22:53;2.55;;;1.75;;
7887;SDS011;3989;48.810;9.208;2023-03-23T14:25:22;3.03;;;1.83;;
7887;SDS011;3989;48.810;9.208;2023-03-23T14:27:53;1.77;;;1.67;;
7887;SDS011;3989;48.810;9.208;2023-03-23T14:30:20;1.70;;;1.55;;
7887;SDS011;3989;48.810;9.208;2023-03-23T14:32:51;2.03;;;1.80;;
7887;SDS011;3989;48.810;9.208;2023-03-23T14:35:23;1.20;;;1.20;;
7887;SDS011;3989;48.810;9.208;2023-03-23T14:37:54;1.35;;;1.27;;
7887;SDS011;3989;48.810;9.208;2023-03-23T14:40:23;1.58;;;1.48;;
7887;SDS011;3989;48.810;9.208;2023-03-23T14:42:53;1.90;;;1.80;;
7887;SDS011;3989;48.810;9.208;2023-03-23T14:45:22;1.73;;;1.63;;
7887;SDS011;3989;48.810;9.208;2023-03-23T14:47:53;1.80;;;1.70;;
7887;SDS011;3989;48.810;9.208;2023-03-23T14:50:25;1.60;;;1.50;;
7887;SDS011;3989;48.810;9.208;2023-03-23T14:52:56;1.45;;;1.35;;
7887;SDS011;3989;48.810;9.208;2023-03-23T14:55:26;1.88;;;1.77;;
7887;SDS011;3989;48.810;9.208;2023-03-23T14:57:56;1.40;;;1.40;;
7887;SDS011;3989;48.810;9.208;2023-03-23T15:00:33;1.70;;;1.60;;
7887;SDS011;3989;48.810;9.208;2023-03-23T15:03:04;2.28;;;2.03;;
7887;SDS011;3989;48.810;9.208;2023-03-23T15:05:33;1.65;;;1.55;;
7887;SDS011;3989;48.810;9.208;2023-03-23T15:08:04;2.05;;;1.95;;
7887;SDS011;3989;48.810;9.208;2023-03-23T15:10:32;3.08;;;1.73;;
7887;SDS011;3989;48.810;9.208;2023-03-23T15:13:00;1.73;;;1.63;;
7887;SDS011;3989;48.810;9.208;2023-03-23T15:15:27;1.40;;;1.30;;
7887;SDS011;3989;48.810;9.208;2023-03-23T15:17:55;2.47;;;1.83;;
7887;SDS011;3989;48.810;9.208;2023-03-23T15:20:26;2.13;;;2.03;;
7887;SDS011;3989;48.810;9.208;2023-03-23T15:22:55;1.65;;;1.55;;
7887;SDS011;3989;48.810;9.208;2023-03-23T15:25:24;2.15;;;1.63;;
7887;SDS011;3989;48.810;9.208;2023-03-23T15:28:14;1.83;;;1.70;;
7887;SDS011;3989;48.810;9.208;2023-03-23T15:30:47;1.48;;;1.38;;
7887;SDS011;3989;48.810;9.208;2023-03-23T15:33:15;3.78;;;1.80;;
7887;SDS011;3989;48.810;9.208;2023-03-23T15:35:46;1.90;;;1.80;;
7887;SDS011;3989;48.810;9.208;2023-03-23T15:38:15;2.70;;;1.70;;
7887;SDS011;3989;48.810;9.208;2023-03-23T15:40:48;1.42;;;1.33;;
7887;SDS011;3989;48.810;9.208;2023-03-23T15:43:16;2.50;;;1.67;;
7887;SDS011;3989;48.810;9.208;2023-03-23T15:45:55;1.75;;;1.50;;